Terminal Aerodrome Forecast
Issued by NWS

Home | Current Version | Previous Version | Text Only | Print | Product List | Glossary On
Versions: 1 2 3 4 5 6 7 8 9 10 11 12
991
FTUS41 KBTV 231731
TAFRUT
TAF
KRUT 231731Z 2318/2418 20005KT P6SM SCT080
     FM232000 19006KT P6SM VCSH SCT050 BKN080
      TEMPO 2320/2324 3SM +SHRA BR SCT035 BKN050
     FM240400 19006KT 6SM SHRA BR BKN025
     FM240900 VRB03KT P6SM VCSH OVC015
     FM241400 30008KT P6SM SCT060 BKN120=

USA.gov is the U.S. government's official web portal to all federal, state and local government web resources and services.